Time;durP1;ratioP1;P1;durP2;ratioP2;P2;SDS_P1;SDS_P2;PMS_P1;PMS_P2;Temp;Humidity;BMP_temperature;BMP_pressure;BME280_temperature;BME280_humidity;BME280_pressure;Samples;Min_cycle;Max_cycle;Signal;HPM_P1;HPM_P2
2023/05/09 00:01:30;;;;;;;;;;;;;;;;;;2220883;58;2964;-23
2023/05/09 00:04:00;;;;;;;;;;;;;;;;;;2220735;58;2590;-23
2023/05/09 00:06:31;;;;;;;;;;;;;;;;;;2219789;58;3379;-23
2023/05/09 00:09:01;;;;;;;;;;;;;;;;;;2220747;59;3057;-22
2023/05/09 00:11:31;;;;;;;;;;;;;;;;;;2206482;66;3090;-23
2023/05/09 00:14:02;;;;;;;;;;;;;;;;;;2219881;66;2145;-22
2023/05/09 00:16:32;;;;;;;;;;;;;;;;;;2219237;66;2694;-23
2023/05/09 00:19:03;;;;;;;;;;;;;;;;;;2203449;64;2915;-22
2023/05/09 00:21:33;;;;;;;;;;;;;;;;;;2203629;59;3018;-22
2023/05/09 00:24:04;;;;;;;;;;;;;;;;;;2219810;66;2159;-22
2023/05/09 00:26:34;;;;;;;;;;;;;;;;;;2220109;66;3106;-22
2023/05/09 00:29:04;;;;;;;;;;;;;;;;;;2220742;66;1873;-22
2023/05/09 00:31:35;;;;;;;;;;;;;;;;;;2221086;66;2725;-22
2023/05/09 00:34:05;;;;;;;;;;;;;;;;;;2220653;58;2587;-22
2023/05/09 00:36:35;;;;;;;;;;;;;;;;;;2220036;59;2925;-22
2023/05/09 00:39:05;;;;;;;;;;;;;;;;;;2219906;58;2628;-22
2023/05/09 00:41:36;;;;;;;;;;;;;;;;;;2220116;66;3221;-21
2023/05/09 00:44:06;;;;;;;;;;;;;;;;;;2220437;66;2564;-22
2023/05/09 00:46:39;;;;;;;;;;;;;;;;;;2219314;66;3175;-22
2023/05/09 00:49:11;;;;;;;;;;;;;;;;;;2219387;66;2773;-22
2023/05/09 00:51:41;;;;;;;;;;;;;;;;;;2219638;58;2902;-24
2023/05/09 00:54:12;;;;;;;;;;;;;;;;;;2204283;66;2983;-24
2023/05/09 00:56:42;;;;;;;;;;;;;;;;;;2219702;66;3321;-24
2023/05/09 00:59:16;;;;;;;;;;;;;;;;;;2216164;58;1794;-24
2023/05/09 01:01:47;;;;;;;;;;;;;;;;;;2219943;58;2851;-25
2023/05/09 01:04:17;;;;;;;;;;;;;;;;;;2220866;58;2101;-25
2023/05/09 01:06:54;;;;;;;;;;;;;;;;;;2220365;58;2662;-25
2023/05/09 01:09:39;;;;;;;;;;;;;;;;;;2221098;66;2647;-25
2023/05/09 01:12:21;;;;;;;;;;;;;;;;;;2220642;66;2075;-25
2023/05/09 01:15:10;;;;;;;;;;;;;;;;;;2220715;66;3214;-25
2023/05/09 01:17:43;;;;;;;;;;;;;;;;;;2219555;66;3229;-25
2023/05/09 01:20:17;;;;;;;;;;;;;;;;;;2218963;58;2164;-24
2023/05/09 01:22:51;;;;;;;;;;;;;;;;;;2219495;66;2527;-25
2023/05/09 01:25:31;;;;;;;;;;;;;;;;;;2219396;66;2171;-23
2023/05/09 01:28:28;;;;;;;;;;;;;;;;;;2220253;66;2379;-22
2023/05/09 01:30:58;;;;;;;;;;;;;;;;;;2219841;66;2781;-22
2023/05/09 01:33:32;;;;;;;;;;;;;;;;;;2220291;58;2709;-22
2023/05/09 01:36:04;;;;;;;;;;;;;;;;;;2220380;66;2647;-23
2023/05/09 01:38:36;;;;;;;;;;;;;;;;;;2220064;58;2817;-22
2023/05/09 01:41:08;;;;;;;;;;;;;;;;;;2220481;66;2856;-22
2023/05/09 01:43:39;;;;;;;;;;;;;;;;;;2219492;59;2608;-22
2023/05/09 01:46:11;;;;;;;;;;;;;;;;;;2219660;66;2217;-22
2023/05/09 01:48:41;;;;;;;;;;;;;;;;;;2219406;66;2534;-22
2023/05/09 01:51:12;;;;;;;;;;;;;;;;;;2220207;66;2285;-22
2023/05/09 01:53:43;;;;;;;;;;;;;;;;;;2203824;59;2779;-22
2023/05/09 01:56:14;;;;;;;;;;;;;;;;;;2219437;66;2292;-22
2023/05/09 01:58:47;;;;;;;;;;;;;;;;;;2220245;58;2977;-22
2023/05/09 02:01:18;;;;;;;;;;;;;;;;;;2220123;58;2512;-22
2023/05/09 02:03:51;;;;;;;;;;;;;;;;;;2220234;58;2301;-22
2023/05/09 02:06:25;;;;;;;;;;;;;;;;;;2219447;58;3881;-22
2023/05/09 02:08:56;;;;;;;;;;;;;;;;;;2220140;66;3934;-22
2023/05/09 02:11:26;;;;;;;;;;;;;;;;;;2219965;66;3160;-22
2023/05/09 02:13:57;;;;;;;;;;;;;;;;;;2204191;66;2770;-22
2023/05/09 02:16:27;;;;;;;;;;;;;;;;;;2219464;66;2742;-22
2023/05/09 02:18:57;;;;;;;;;;;;;;;;;;2219928;59;2710;-22
2023/05/09 02:21:28;;;;;;;;;;;;;;;;;;2218825;58;2767;-22
2023/05/09 02:23:59;;;;;;;;;;;;;;;;;;2220764;66;2945;-22
2023/05/09 02:26:29;;;;;;;;;;;;;;;;;;2219962;66;2588;-22
2023/05/09 02:29:01;;;;;;;;;;;;;;;;;;2219881;66;2069;-22
2023/05/09 02:31:32;;;;;;;;;;;;;;;;;;2219198;66;2928;-22
2023/05/09 02:34:04;;;;;;;;;;;;;;;;;;2203533;59;2120;-22
2023/05/09 02:36:34;;;;;;;;;;;;;;;;;;2204425;66;3245;-22
2023/05/09 02:39:06;;;;;;;;;;;;;;;;;;2217774;58;3103;-22
2023/05/09 02:41:36;;;;;;;;;;;;;;;;;;2220005;66;3204;-22
2023/05/09 02:44:09;;;;;;;;;;;;;;;;;;2203502;66;2769;-22
2023/05/09 02:46:40;;;;;;;;;;;;;;;;;;2220335;66;2470;-22
2023/05/09 02:49:10;;;;;;;;;;;;;;;;;;2219633;66;2065;-22
2023/05/09 02:51:40;;;;;;;;;;;;;;;;;;2203342;58;2815;-22
2023/05/09 02:54:11;;;;;;;;;;;;;;;;;;2220038;66;2932;-22
2023/05/09 02:56:41;;;;;;;;;;;;;;;;;;2219576;58;2850;-22
2023/05/09 02:59:11;;;;;;;;;;;;;;;;;;2219984;58;3500;-22
2023/05/09 03:01:41;;;;;;;;;;;;;;;;;;2206233;59;2943;-22
2023/05/09 03:04:12;;;;;;;;;;;;;;;;;;2220166;58;2322;-22
2023/05/09 03:06:42;;;;;;;;;;;;;;;;;;2205470;59;2087;-22
2023/05/09 03:09:13;;;;;;;;;;;;;;;;;;2218935;66;2574;-22
2023/05/09 03:11:43;;;;;;;;;;;;;;;;;;2205581;66;2126;-22
2023/05/09 03:14:14;;;;;;;;;;;;;;;;;;2220193;66;2840;-22
2023/05/09 03:16:44;;;;;;;;;;;;;;;;;;2220940;66;2016;-22
2023/05/09 03:19:14;;;;;;;;;;;;;;;;;;2203987;66;2361;-22
2023/05/09 03:21:44;;;;;;;;;;;;;;;;;;2219875;58;2854;-22
2023/05/09 03:24:15;;;;;;;;;;;;;;;;;;2219562;66;1674;-22
2023/05/09 03:26:45;;;;;;;;;;;;;;;;;;2204398;66;2129;-22
2023/05/09 03:29:15;;;;;;;;;;;;;;;;;;2219935;66;1970;-22
2023/05/09 03:31:45;;;;;;;;;;;;;;;;;;2220194;66;2206;-22
2023/05/09 03:34:16;;;;;;;;;;;;;;;;;;2220473;58;2168;-22
2023/05/09 03:36:46;;;;;;;;;;;;;;;;;;2219490;66;2406;-22
2023/05/09 03:39:16;;;;;;;;;;;;;;;;;;2220589;58;2044;-22
2023/05/09 03:41:47;;;;;;;;;;;;;;;;;;2220276;66;2737;-22
2023/05/09 03:44:17;;;;;;;;;;;;;;;;;;2220171;66;2660;-22
2023/05/09 03:46:48;;;;;;;;;;;;;;;;;;2220322;66;3065;-22
2023/05/09 03:49:19;;;;;;;;;;;;;;;;;;2219542;66;2270;-22
2023/05/09 03:51:49;;;;;;;;;;;;;;;;;;2219999;58;3469;-22
2023/05/09 03:54:19;;;;;;;;;;;;;;;;;;2220565;66;2615;-22
2023/05/09 03:56:50;;;;;;;;;;;;;;;;;;2204361;66;2686;-22
2023/05/09 03:59:20;;;;;;;;;;;;;;;;;;2219963;58;2781;-22
2023/05/09 04:01:50;;;;;;;;;;;;;;;;;;2220886;58;3173;-22
2023/05/09 04:04:21;;;;;;;;;;;;;;;;;;2219900;58;2250;-22
2023/05/09 04:06:51;;;;;;;;;;;;;;;;;;2213647;58;2315;-22
2023/05/09 04:09:21;;;;;;;;;;;;;;;;;;2219785;66;2706;-21
2023/05/09 04:11:51;;;;;;;;;;;;;;;;;;2220798;66;2730;-22
2023/05/09 04:14:21;;;;;;;;;;;;;;;;;;2220038;59;2932;-22
2023/05/09 04:16:52;;;;;;;;;;;;;;;;;;2220266;66;2514;-22
2023/05/09 04:19:22;;;;;;;;;;;;;;;;;;2220182;66;3342;-22
2023/05/09 04:21:52;;;;;;;;;;;;;;;;;;2219557;59;2969;-22
2023/05/09 04:24:22;;;;;;;;;;;;;;;;;;2205919;59;2369;-22
2023/05/09 04:26:53;;;;;;;;;;;;;;;;;;2220096;66;3040;-22
2023/05/09 04:29:23;;;;;;;;;;;;;;;;;;2220638;59;2137;-22
2023/05/09 04:31:53;;;;;;;;;;;;;;;;;;2203817;58;3109;-22
2023/05/09 04:34:25;;;;;;;;;;;;;;;;;;2220325;66;2299;-22
2023/05/09 04:36:55;;;;;;;;;;;;;;;;;;2219325;66;2481;-22
2023/05/09 04:39:29;;;;;;;;;;;;;;;;;;2220187;66;2033;-22
2023/05/09 04:42:00;;;;;;;;;;;;;;;;;;2220941;66;3074;-22
2023/05/09 04:44:30;;;;;;;;;;;;;;;;;;2221267;59;1993;-22
2023/05/09 04:47:00;;;;;;;;;;;;;;;;;;2204650;66;2842;-22
2023/05/09 04:49:31;;;;;;;;;;;;;;;;;;2220112;66;2740;-22
2023/05/09 04:52:01;;;;;;;;;;;;;;;;;;2219872;58;2913;-22
2023/05/09 04:54:31;;;;;;;;;;;;;;;;;;2220407;66;2783;-22
2023/05/09 04:57:03;;;;;;;;;;;;;;;;;;2220427;66;1759;-22
2023/05/09 04:59:34;;;;;;;;;;;;;;;;;;2218195;58;1965;-22
2023/05/09 05:02:04;;;;;;;;;;;;;;;;;;2221150;58;2343;-22
2023/05/09 05:04:35;;;;;;;;;;;;;;;;;;2220397;58;2082;-22
2023/05/09 05:07:05;;;;;;;;;;;;;;;;;;2203816;59;2077;-22
2023/05/09 05:09:35;;;;;;;;;;;;;;;;;;2220243;66;2627;-23
2023/05/09 05:12:08;;;;;;;;;;;;;;;;;;2220148;62;2538;-22
2023/05/09 05:14:38;;;;;;;;;;;;;;;;;;2219158;66;3943;-22
2023/05/09 05:17:09;;;;;;;;;;;;;;;;;;2219338;66;2375;-22
2023/05/09 05:19:39;;;;;;;;;;;;;;;;;;2217066;66;3152;-22
2023/05/09 05:22:09;;;;;;;;;;;;;;;;;;2219950;58;2234;-22
2023/05/09 05:24:39;;;;;;;;;;;;;;;;;;2219999;66;2713;-22
2023/05/09 05:27:13;;;;;;;;;;;;;;;;;;2219368;66;2047;-22
2023/05/09 05:29:43;;;;;;;;;;;;;;;;;;2204634;66;2547;-23
2023/05/09 05:32:13;;;;;;;;;;;;;;;;;;2220608;58;3101;-23
2023/05/09 05:34:43;;;;;;;;;;;;;;;;;;2218923;66;2973;-22
2023/05/09 05:37:13;;;;;;;;;;;;;;;;;;2204124;66;2032;-22
2023/05/09 05:39:44;;;;;;;;;;;;;;;;;;2219478;58;2702;-22
2023/05/09 05:42:14;;;;;;;;;;;;;;;;;;2219934;66;2466;-22
2023/05/09 05:44:47;;;;;;;;;;;;;;;;;;2203428;66;3133;-23
2023/05/09 05:47:17;;;;;;;;;;;;;;;;;;2218235;58;2234;-22
2023/05/09 05:49:47;;;;;;;;;;;;;;;;;;2219713;66;2673;-22
2023/05/09 05:52:18;;;;;;;;;;;;;;;;;;2218021;58;2911;-22
2023/05/09 05:54:48;;;;;;;;;;;;;;;;;;2210234;59;2839;-22
2023/05/09 05:57:18;;;;;;;;;;;;;;;;;;2199506;59;2221;-22
2023/05/09 05:59:49;;;;;;;;;;;;;;;;;;2216763;58;2636;-22
2023/05/09 06:02:20;;;;;;;;;;;;;;;;;;2218944;58;2995;-22
2023/05/09 06:04:50;;;;;;;;;;;;;;;;;;2218982;58;2582;-22
2023/05/09 06:07:20;;;;;;;;;;;;;;;;;;2219718;58;2707;-22
2023/05/09 06:09:51;;;;;;;;;;;;;;;;;;2202577;66;2816;-22
2023/05/09 06:12:21;;;;;;;;;;;;;;;;;;2219327;66;3182;-22
2023/05/09 06:14:51;;;;;;;;;;;;;;;;;;2218899;66;3257;-22
2023/05/09 06:17:21;;;;;;;;;;;;;;;;;;2208487;53;3625;-21
2023/05/09 06:19:51;;;;;;;;;;;;;;;;;;2199685;62;2244;-21
2023/05/09 06:22:27;;;;;;;;;;;;;;;;;;2200765;59;3214;-21
2023/05/09 06:24:58;;;;;;;;;;;;;;;;;;2199828;66;3488;-21
2023/05/09 06:27:28;;;;;;;;;;;;;;;;;;2203241;66;3887;-21
2023/05/09 06:29:58;;;;;;;;;;;;;;;;;;2201514;59;3108;-21
2023/05/09 06:32:28;;;;;;;;;;;;;;;;;;2199583;59;2112;-21
2023/05/09 06:34:59;;;;;;;;;;;;;;;;;;2202587;59;2507;-21
2023/05/09 06:37:49;;;;;;;;;;;;;;;;;;2201765;66;1764;-21
2023/05/09 06:40:19;;;;;;;;;;;;;;;;;;2201704;60;1736;-21
2023/05/09 06:42:53;;;;;;;;;;;;;;;;;;2205253;66;2703;-21
2023/05/09 06:45:23;;;;;;;;;;;;;;;;;;2203408;59;2862;-21
2023/05/09 06:47:53;;;;;;;;;;;;;;;;;;2203836;66;2439;-21
2023/05/09 06:50:24;;;;;;;;;;;;;;;;;;2202776;66;2974;-21
2023/05/09 06:52:54;;;;;;;;;;;;;;;;;;2202813;59;2929;-21
2023/05/09 06:55:24;;;;;;;;;;;;;;;;;;2201719;66;3501;-21
2023/05/09 06:57:54;;;;;;;;;;;;;;;;;;2204894;59;2940;-21
2023/05/09 07:00:25;;;;;;;;;;;;;;;;;;2202975;58;2162;-21
2023/05/09 07:02:56;;;;;;;;;;;;;;;;;;2202811;59;2289;-22
2023/05/09 07:05:26;;;;;;;;;;;;;;;;;;2202079;59;1946;-21
2023/05/09 07:07:56;;;;;;;;;;;;;;;;;;2202197;59;2903;-21
2023/05/09 07:10:27;;;;;;;;;;;;;;;;;;2203069;59;2927;-21
2023/05/09 07:12:57;;;;;;;;;;;;;;;;;;2203290;59;2174;-21
2023/05/09 07:15:27;;;;;;;;;;;;;;;;;;2203360;60;2211;-21
2023/05/09 07:17:57;;;;;;;;;;;;;;;;;;2200868;59;3019;-21
2023/05/09 07:20:28;;;;;;;;;;;;;;;;;;2195539;59;3054;-21
2023/05/09 07:22:58;;;;;;;;;;;;;;;;;;2196973;66;3211;-21
2023/05/09 07:25:28;;;;;;;;;;;;;;;;;;2197720;66;2512;-21
2023/05/09 07:27:58;;;;;;;;;;;;;;;;;;2199538;66;3351;-21
2023/05/09 07:30:29;;;;;;;;;;;;;;;;;;2199586;59;2284;-21
2023/05/09 07:33:00;;;;;;;;;;;;;;;;;;2200161;66;3086;-22
2023/05/09 07:35:30;;;;;;;;;;;;;;;;;;2199600;66;2003;-22
2023/05/09 07:38:07;;;;;;;;;;;;;;;;;;2200879;59;2371;-22
2023/05/09 07:40:37;;;;;;;;;;;;;;;;;;2201695;59;2090;-22
2023/05/09 07:43:07;;;;;;;;;;;;;;;;;;2198339;60;2512;-22
2023/05/09 07:45:37;;;;;;;;;;;;;;;;;;2199062;66;3187;-22
2023/05/09 07:48:08;;;;;;;;;;;;;;;;;;2199689;59;2514;-22
2023/05/09 07:50:38;;;;;;;;;;;;;;;;;;2199899;66;3168;-22
2023/05/09 07:53:09;;;;;;;;;;;;;;;;;;2197358;59;3344;-22
2023/05/09 07:55:39;;;;;;;;;;;;;;;;;;2198795;59;2711;-22
2023/05/09 07:58:09;;;;;;;;;;;;;;;;;;2200436;59;2259;-22
2023/05/09 08:00:39;;;;;;;;;;;;;;;;;;2199609;59;2680;-22
2023/05/09 08:03:10;;;;;;;;;;;;;;;;;;2198875;59;2094;-22
2023/05/09 08:05:40;;;;;;;;;;;;;;;;;;2198355;59;2649;-21
2023/05/09 08:08:10;;;;;;;;;;;;;;;;;;2203018;66;2809;-22
2023/05/09 08:10:40;;;;;;;;;;;;;;;;;;2199024;62;2746;-22
2023/05/09 08:13:14;;;;;;;;;;;;;;;;;;2199147;66;2259;-22
2023/05/09 08:15:44;;;;;;;;;;;;;;;;;;2200161;66;2059;-22
2023/05/09 08:18:14;;;;;;;;;;;;;;;;;;2198176;59;2862;-22
2023/05/09 08:20:45;;;;;;;;;;;;;;;;;;2191586;59;3147;-22
2023/05/09 08:23:15;;;;;;;;;;;;;;;;;;2198916;59;2460;-22
2023/05/09 08:25:45;;;;;;;;;;;;;;;;;;2198559;59;2777;-22
2023/05/09 08:28:15;;;;;;;;;;;;;;;;;;2193764;59;2953;-22
2023/05/09 08:30:45;;;;;;;;;;;;;;;;;;2193939;59;2329;-22
2023/05/09 08:33:16;;;;;;;;;;;;;;;;;;2199875;66;3270;-22
2023/05/09 08:35:50;;;;;;;;;;;;;;;;;;2199276;59;2558;-22
2023/05/09 08:38:21;;;;;;;;;;;;;;;;;;2199117;59;2070;-22
2023/05/09 08:40:51;;;;;;;;;;;;;;;;;;2200680;66;2860;-22
2023/05/09 08:43:22;;;;;;;;;;;;;;;;;;2199792;66;2796;-22
2023/05/09 08:45:59;;;;;;;;;;;;;;;;;;2201958;66;3013;-22
2023/05/09 08:48:30;;;;;;;;;;;;;;;;;;2199721;66;1935;-22
2023/05/09 08:51:00;;;;;;;;;;;;;;;;;;2199652;66;2903;-22
2023/05/09 08:53:33;;;;;;;;;;;;;;;;;;2199292;63;2515;-22
2023/05/09 08:56:04;;;;;;;;;;;;;;;;;;2200138;59;2254;-22
2023/05/09 08:58:34;;;;;;;;;;;;;;;;;;2202844;58;2617;-22
2023/05/09 09:01:05;;;;;;;;;;;;;;;;;;2202811;59;2517;-22
2023/05/09 09:03:36;;;;;;;;;;;;;;;;;;2198515;59;2264;-22
2023/05/09 09:06:06;;;;;;;;;;;;;;;;;;2200488;59;3590;-22
2023/05/09 09:08:36;;;;;;;;;;;;;;;;;;2200294;59;2222;-23
2023/05/09 09:11:09;;;;;;;;;;;;;;;;;;2202687;59;3521;-22
2023/05/09 09:13:40;;;;;;;;;;;;;;;;;;2201438;59;2441;-22
2023/05/09 09:16:16;;;;;;;;;;;;;;;;;;2203756;59;2318;-22
2023/05/09 09:18:47;;;;;;;;;;;;;;;;;;2202045;66;2143;-22
2023/05/09 09:21:18;;;;;;;;;;;;;;;;;;2202668;59;2771;-22
2023/05/09 09:23:49;;;;;;;;;;;;;;;;;;2203159;66;2914;-22
2023/05/09 09:26:20;;;;;;;;;;;;;;;;;;2202172;59;1748;-23
2023/05/09 09:28:50;;;;;;;;;;;;;;;;;;2202784;59;3162;-22
2023/05/09 09:31:22;;;;;;;;;;;;;;;;;;2203706;59;2223;-22
2023/05/09 09:34:01;;;;;;;;;;;;;;;;;;2202132;66;2579;-22
2023/05/09 09:36:32;;;;;;;;;;;;;;;;;;2202705;66;2437;-22
2023/05/09 09:39:07;;;;;;;;;;;;;;;;;;2201649;59;2524;-22
2023/05/09 09:41:38;;;;;;;;;;;;;;;;;;2202781;59;2848;-22
2023/05/09 09:44:10;;;;;;;;;;;;;;;;;;2202901;59;3279;-22
2023/05/09 09:46:49;;;;;;;;;;;;;;;;;;2201711;59;3279;-23
2023/05/09 09:49:22;;;;;;;;;;;;;;;;;;2202776;59;2163;-23
2023/05/09 09:51:57;;;;;;;;;;;;;;;;;;2203189;59;2278;-23
2023/05/09 09:54:27;;;;;;;;;;;;;;;;;;2203933;66;2747;-20
2023/05/09 09:56:57;;;;;;;;;;;;;;;;;;2204980;66;2045;-20
2023/05/09 09:59:27;;;;;;;;;;;;;;;;;;2203608;59;2409;-23
2023/05/09 10:01:59;;;;;;;;;;;;;;;;;;2202668;59;3116;-23
2023/05/09 10:04:31;;;;;;;;;;;;;;;;;;2198953;58;3760;-23
2023/05/09 10:07:06;;;;;;;;;;;;;;;;;;2201467;53;4136;-20
2023/05/09 10:09:39;;;;;;;;;;;;;;;;;;2201165;66;2204;-21
2023/05/09 10:12:10;;;;;;;;;;;;;;;;;;2202638;66;2368;-21
2023/05/09 10:14:41;;;;;;;;;;;;;;;;;;2202864;66;1820;-21
2023/05/09 10:17:12;;;;;;;;;;;;;;;;;;2201414;66;2828;-21
2023/05/09 10:19:44;;;;;;;;;;;;;;;;;;2198682;66;2457;-21
2023/05/09 10:22:16;;;;;;;;;;;;;;;;;;2200156;59;2524;-21
2023/05/09 10:24:55;;;;;;;;;;;;;;;;;;2201582;66;2704;-21
2023/05/09 10:27:26;;;;;;;;;;;;;;;;;;2202734;66;2014;-21
2023/05/09 10:29:59;;;;;;;;;;;;;;;;;;2198657;59;2850;-21
2023/05/09 10:32:30;;;;;;;;;;;;;;;;;;2197166;66;1934;-21
2023/05/09 10:35:03;;;;;;;;;;;;;;;;;;2197241;59;2079;-21
2023/05/09 10:37:34;;;;;;;;;;;;;;;;;;2197866;59;2462;-21
2023/05/09 10:40:04;;;;;;;;;;;;;;;;;;2195713;59;2662;-21
2023/05/09 10:42:35;;;;;;;;;;;;;;;;;;2197900;66;2103;-21
2023/05/09 10:45:06;;;;;;;;;;;;;;;;;;2199843;66;3013;-22
2023/05/09 10:47:37;;;;;;;;;;;;;;;;;;2197838;59;2263;-21
2023/05/09 10:50:09;;;;;;;;;;;;;;;;;;2197474;66;3119;-21
2023/05/09 10:52:58;;;;;;;;;;;;;;;;;;2196622;59;2040;-22
2023/05/09 10:55:48;;;;;;;;;;;;;;;;;;2197976;66;2249;-21
2023/05/09 10:58:19;;;;;;;;;;;;;;;;;;2199783;59;2062;-21
2023/05/09 11:00:54;;;;;;;;;;;;;;;;;;2199215;59;2002;-22
2023/05/09 11:03:25;;;;;;;;;;;;;;;;;;2200112;59;2182;-22
2023/05/09 11:05:56;;;;;;;;;;;;;;;;;;2197974;59;2471;-22
2023/05/09 11:08:33;;;;;;;;;;;;;;;;;;2197759;59;2555;-21
2023/05/09 11:11:05;;;;;;;;;;;;;;;;;;2198841;66;2336;-25
2023/05/09 11:13:39;;;;;;;;;;;;;;;;;;2199502;59;2716;-21
2023/05/09 11:16:10;;;;;;;;;;;;;;;;;;2198094;59;3087;-21
2023/05/09 11:18:50;;;;;;;;;;;;;;;;;;2198128;66;3183;-21
2023/05/09 11:21:21;;;;;;;;;;;;;;;;;;2198741;59;2318;-21
2023/05/09 11:23:52;;;;;;;;;;;;;;;;;;2197371;59;2336;-21
2023/05/09 11:26:27;;;;;;;;;;;;;;;;;;2197356;59;2154;-21
2023/05/09 11:29:05;;;;;;;;;;;;;;;;;;2198141;59;2123;-21
2023/05/09 11:31:55;;;;;;;;;;;;;;;;;;2199503;66;2159;-21
2023/05/09 11:34:25;;;;;;;;;;;;;;;;;;2198606;66;2207;-21
2023/05/09 11:37:06;;;;;;;;;;;;;;;;;;2198525;66;2596;-21
2023/05/09 11:39:54;;;;;;;;;;;;;;;;;;2198541;59;2474;-21
2023/05/09 11:42:28;;;;;;;;;;;;;;;;;;2198648;66;2246;-21
2023/05/09 11:44:58;;;;;;;;;;;;;;;;;;2203833;66;2208;-22
2023/05/09 11:47:29;;;;;;;;;;;;;;;;;;2197633;62;1999;-21
2023/05/09 11:49:59;;;;;;;;;;;;;;;;;;2197886;66;1971;-21
2023/05/09 11:52:33;;;;;;;;;;;;;;;;;;2198698;66;2825;-21
2023/05/09 11:55:10;;;;;;;;;;;;;;;;;;2197393;66;2726;-22
2023/05/09 11:57:48;;;;;;;;;;;;;;;;;;2198084;59;2208;-22
2023/05/09 12:00:19;;;;;;;;;;;;;;;;;;2198719;59;2402;-22
2023/05/09 12:02:50;;;;;;;;;;;;;;;;;;2199368;59;3269;-22
2023/05/09 12:05:21;;;;;;;;;;;;;;;;;;2197904;59;1944;-22
2023/05/09 12:07:51;;;;;;;;;;;;;;;;;;2196815;59;2833;-22
2023/05/09 12:10:22;;;;;;;;;;;;;;;;;;2197376;67;2888;-22
2023/05/09 12:12:54;;;;;;;;;;;;;;;;;;2198154;59;2614;-22
2023/05/09 12:15:24;;;;;;;;;;;;;;;;;;2198840;59;1988;-22
2023/05/09 12:18:04;;;;;;;;;;;;;;;;;;2211577;53;3751;-23
2023/05/09 12:20:49;;;;;;;;;;;;;;;;;;2217542;58;2608;-23
2023/05/09 12:23:19;;;;;;;;;;;;;;;;;;2202918;66;2743;-23
2023/05/09 12:25:53;;;;;;;;;;;;;;;;;;2218791;66;2658;-23
2023/05/09 12:28:24;;;;;;;;;;;;;;;;;;2218460;58;2520;-23
2023/05/09 12:30:54;;;;;;;;;;;;;;;;;;2219618;58;2333;-23
2023/05/09 12:33:28;;;;;;;;;;;;;;;;;;2219709;66;2833;-23
2023/05/09 12:36:09;;;;;;;;;;;;;;;;;;2219378;58;2823;-23
2023/05/09 12:38:40;;;;;;;;;;;;;;;;;;2219367;58;2975;-23
2023/05/09 12:41:12;;;;;;;;;;;;;;;;;;2202854;60;2777;-23
2023/05/09 12:43:46;;;;;;;;;;;;;;;;;;2220668;66;2944;-23
2023/05/09 12:46:17;;;;;;;;;;;;;;;;;;2204672;66;2858;-23
2023/05/09 12:48:48;;;;;;;;;;;;;;;;;;2218352;58;2381;-23
2023/05/09 12:51:19;;;;;;;;;;;;;;;;;;2220180;66;2885;-23
2023/05/09 12:53:49;;;;;;;;;;;;;;;;;;2219707;59;1923;-23
2023/05/09 12:56:22;;;;;;;;;;;;;;;;;;2220476;66;2845;-23
2023/05/09 12:58:53;;;;;;;;;;;;;;;;;;2216544;58;2597;-23
2023/05/09 13:01:26;;;;;;;;;;;;;;;;;;2219050;58;2806;-23
2023/05/09 13:04:03;;;;;;;;;;;;;;;;;;2202780;59;3285;-23
2023/05/09 13:06:34;;;;;;;;;;;;;;;;;;2219821;58;2617;-23
2023/05/09 13:09:05;;;;;;;;;;;;;;;;;;2201557;59;2580;-23
2023/05/09 13:11:36;;;;;;;;;;;;;;;;;;2218683;66;3213;-23
2023/05/09 13:14:07;;;;;;;;;;;;;;;;;;2220427;63;3150;-23
2023/05/09 13:16:37;;;;;;;;;;;;;;;;;;2219451;58;3397;-23
2023/05/09 13:19:08;;;;;;;;;;;;;;;;;;2218524;66;2643;-23
2023/05/09 13:21:38;;;;;;;;;;;;;;;;;;2219597;58;2667;-23
2023/05/09 13:24:08;;;;;;;;;;;;;;;;;;2202993;66;3291;-23
2023/05/09 13:26:38;;;;;;;;;;;;;;;;;;2219622;66;2554;-23
2023/05/09 13:29:09;;;;;;;;;;;;;;;;;;2219053;66;2478;-23
2023/05/09 13:31:39;;;;;;;;;;;;;;;;;;2208726;66;2667;-23
2023/05/09 13:34:09;;;;;;;;;;;;;;;;;;2219194;66;2105;-23
2023/05/09 13:36:40;;;;;;;;;;;;;;;;;;2220353;66;2766;-23
2023/05/09 13:39:10;;;;;;;;;;;;;;;;;;2218830;58;3400;-23
2023/05/09 13:41:40;;;;;;;;;;;;;;;;;;2217400;59;3040;-23
2023/05/09 13:44:11;;;;;;;;;;;;;;;;;;2219269;66;3125;-23
2023/05/09 13:46:41;;;;;;;;;;;;;;;;;;2203744;66;2830;-23
2023/05/09 13:49:12;;;;;;;;;;;;;;;;;;2201915;66;3164;-23
2023/05/09 13:51:42;;;;;;;;;;;;;;;;;;2220931;58;1951;-23
2023/05/09 13:54:14;;;;;;;;;;;;;;;;;;2219095;66;2877;-23
2023/05/09 13:56:44;;;;;;;;;;;;;;;;;;2220598;66;3270;-23
2023/05/09 13:59:15;;;;;;;;;;;;;;;;;;2219463;58;2650;-23
2023/05/09 14:01:45;;;;;;;;;;;;;;;;;;2220728;58;2399;-23
2023/05/09 14:04:15;;;;;;;;;;;;;;;;;;2218992;58;3096;-23
2023/05/09 14:06:47;;;;;;;;;;;;;;;;;;2220846;58;2865;-23
2023/05/09 14:09:18;;;;;;;;;;;;;;;;;;2217959;59;2919;-23
2023/05/09 14:11:50;;;;;;;;;;;;;;;;;;2220632;66;2373;-23
2023/05/09 14:14:21;;;;;;;;;;;;;;;;;;2204434;66;2266;-23
2023/05/09 14:16:52;;;;;;;;;;;;;;;;;;2219704;66;2066;-23
2023/05/09 14:19:23;;;;;;;;;;;;;;;;;;2219463;66;2926;-23
2023/05/09 14:21:53;;;;;;;;;;;;;;;;;;2204399;59;1974;-23
2023/05/09 14:24:23;;;;;;;;;;;;;;;;;;2218268;66;2856;-23
2023/05/09 14:26:53;;;;;;;;;;;;;;;;;;2220083;66;2958;-23
2023/05/09 14:29:23;;;;;;;;;;;;;;;;;;2202749;66;2047;-23
2023/05/09 14:31:54;;;;;;;;;;;;;;;;;;2203075;66;3246;-23
2023/05/09 14:34:24;;;;;;;;;;;;;;;;;;2219793;66;3090;-23
2023/05/09 14:36:54;;;;;;;;;;;;;;;;;;2219978;66;2749;-23
2023/05/09 14:39:25;;;;;;;;;;;;;;;;;;2219062;58;2553;-23
2023/05/09 14:41:55;;;;;;;;;;;;;;;;;;2218630;58;2531;-23
2023/05/09 14:44:25;;;;;;;;;;;;;;;;;;2203970;60;2103;-23
2023/05/09 14:46:56;;;;;;;;;;;;;;;;;;2219354;66;2583;-23
2023/05/09 14:49:26;;;;;;;;;;;;;;;;;;2205280;60;2349;-23
2023/05/09 14:51:56;;;;;;;;;;;;;;;;;;2205336;58;2970;-23
2023/05/09 14:54:26;;;;;;;;;;;;;;;;;;2219148;66;2073;-23
2023/05/09 14:56:58;;;;;;;;;;;;;;;;;;2219603;58;2540;-23
2023/05/09 14:59:28;;;;;;;;;;;;;;;;;;2219631;58;1855;-23
2023/05/09 15:01:58;;;;;;;;;;;;;;;;;;2220554;58;2487;-23
2023/05/09 15:04:29;;;;;;;;;;;;;;;;;;2219557;58;2070;-23
2023/05/09 15:06:59;;;;;;;;;;;;;;;;;;2220831;58;2338;-23
2023/05/09 15:09:30;;;;;;;;;;;;;;;;;;2219840;66;2193;-23
2023/05/09 15:12:00;;;;;;;;;;;;;;;;;;2202006;58;2928;-23
2023/05/09 15:14:31;;;;;;;;;;;;;;;;;;2202486;58;2469;-23
2023/05/09 15:17:03;;;;;;;;;;;;;;;;;;2219945;58;2605;-23
2023/05/09 15:19:35;;;;;;;;;;;;;;;;;;2220412;66;2156;-23
2023/05/09 15:22:05;;;;;;;;;;;;;;;;;;2221127;58;2651;-23
2023/05/09 15:24:36;;;;;;;;;;;;;;;;;;2204163;66;2663;-23
2023/05/09 15:27:06;;;;;;;;;;;;;;;;;;2205273;66;3264;-23
2023/05/09 15:29:36;;;;;;;;;;;;;;;;;;2220302;66;2114;-23
2023/05/09 15:32:06;;;;;;;;;;;;;;;;;;2219099;58;2422;-22
2023/05/09 15:34:38;;;;;;;;;;;;;;;;;;2204086;59;1935;-23
2023/05/09 15:37:11;;;;;;;;;;;;;;;;;;2206315;66;2818;-23
2023/05/09 15:39:44;;;;;;;;;;;;;;;;;;2205891;59;2644;-22
2023/05/09 15:42:15;;;;;;;;;;;;;;;;;;2220159;59;2788;-23
2023/05/09 15:44:48;;;;;;;;;;;;;;;;;;2203572;66;2703;-23
2023/05/09 15:47:18;;;;;;;;;;;;;;;;;;2219465;66;3010;-23
2023/05/09 15:49:48;;;;;;;;;;;;;;;;;;2219305;66;2822;-23
2023/05/09 15:52:18;;;;;;;;;;;;;;;;;;2204597;66;2710;-23
2023/05/09 15:54:49;;;;;;;;;;;;;;;;;;2219366;66;2500;-23
2023/05/09 15:57:19;;;;;;;;;;;;;;;;;;2219974;66;3130;-23
2023/05/09 15:59:49;;;;;;;;;;;;;;;;;;2219198;58;1975;-23
2023/05/09 16:02:20;;;;;;;;;;;;;;;;;;2220029;58;2727;-22
2023/05/09 16:04:51;;;;;;;;;;;;;;;;;;2220041;58;2323;-22
2023/05/09 16:07:21;;;;;;;;;;;;;;;;;;2220041;58;2055;-22
2023/05/09 16:09:51;;;;;;;;;;;;;;;;;;2220209;62;3340;-22
2023/05/09 16:12:23;;;;;;;;;;;;;;;;;;2205344;59;2454;-22
2023/05/09 16:14:53;;;;;;;;;;;;;;;;;;2220078;58;2001;-22
2023/05/09 16:17:23;;;;;;;;;;;;;;;;;;2219749;58;8721;-22
2023/05/09 16:19:54;;;;;;;;;;;;;;;;;;2219418;66;1993;-22
2023/05/09 16:22:24;;;;;;;;;;;;;;;;;;2220279;58;2758;-22
2023/05/09 16:24:54;;;;;;;;;;;;;;;;;;2218677;66;1993;-22
2023/05/09 16:27:25;;;;;;;;;;;;;;;;;;2204929;60;3472;-22
2023/05/09 16:29:55;;;;;;;;;;;;;;;;;;2220953;66;2593;-22
2023/05/09 16:32:31;;;;;;;;;;;;;;;;;;2204081;66;2476;-22
2023/05/09 16:35:01;;;;;;;;;;;;;;;;;;2220012;66;2786;-22
2023/05/09 16:37:32;;;;;;;;;;;;;;;;;;2220237;58;1665;-22
2023/05/09 16:40:03;;;;;;;;;;;;;;;;;;2218819;58;2471;-22
2023/05/09 16:42:33;;;;;;;;;;;;;;;;;;2220695;66;1958;-22
2023/05/09 16:45:04;;;;;;;;;;;;;;;;;;2220321;66;2241;-22
2023/05/09 16:47:34;;;;;;;;;;;;;;;;;;2203787;66;2637;-22
2023/05/09 16:50:05;;;;;;;;;;;;;;;;;;2219351;66;2712;-22
2023/05/09 16:52:35;;;;;;;;;;;;;;;;;;2205176;66;2779;-22
2023/05/09 16:55:05;;;;;;;;;;;;;;;;;;2220167;66;2075;-22
2023/05/09 16:57:37;;;;;;;;;;;;;;;;;;2220321;58;2521;-22
2023/05/09 17:00:08;;;;;;;;;;;;;;;;;;2219462;58;2558;-22
2023/05/09 17:02:39;;;;;;;;;;;;;;;;;;2217136;58;2510;-22
2023/05/09 17:05:09;;;;;;;;;;;;;;;;;;2198337;58;2621;-22
2023/05/09 17:07:39;;;;;;;;;;;;;;;;;;2214599;58;2630;-25
2023/05/09 17:10:10;;;;;;;;;;;;;;;;;;2218168;58;2925;-22
2023/05/09 17:12:40;;;;;;;;;;;;;;;;;;2219541;66;2894;-22
2023/05/09 17:15:12;;;;;;;;;;;;;;;;;;2218032;66;2682;-22
2023/05/09 17:17:42;;;;;;;;;;;;;;;;;;2219043;58;2191;-26
2023/05/09 17:20:12;;;;;;;;;;;;;;;;;;2218355;58;2512;-27
2023/05/09 17:22:43;;;;;;;;;;;;;;;;;;2220872;58;2109;-26
2023/05/09 17:25:13;;;;;;;;;;;;;;;;;;2204196;59;2572;-26
2023/05/09 17:27:43;;;;;;;;;;;;;;;;;;2220823;66;2241;-27
2023/05/09 17:30:13;;;;;;;;;;;;;;;;;;2217357;66;2313;-27
2023/05/09 17:32:44;;;;;;;;;;;;;;;;;;2203666;66;2276;-27